createdAt,value
2022-09-06T00:00:43.872Z,4.85
2022-09-06T00:03:46.510Z,4.20
2022-09-06T00:06:48.674Z,4.82
2022-09-06T00:09:50.716Z,4.77
2022-09-06T00:12:53.779Z,4.28
2022-09-06T00:15:55.895Z,4.65
2022-09-06T00:18:58.122Z,4.60
2022-09-06T00:22:00.196Z,4.97
2022-09-06T00:25:02.586Z,4.73
2022-09-06T00:28:05.462Z,4.75
2022-09-06T00:31:17.784Z,4.50
2022-09-06T00:34:19.876Z,4.65
2022-09-06T00:37:21.977Z,4.30
2022-09-06T00:40:24.066Z,4.27
2022-09-06T00:43:26.142Z,4.68
2022-09-06T00:46:29.325Z,5.00
2022-09-06T00:49:32.981Z,5.28
2022-09-06T00:52:35.400Z,5.35
2022-09-06T00:55:37.516Z,4.60
2022-09-06T00:58:39.866Z,4.95
2022-09-06T01:01:42.253Z,5.18
2022-09-06T01:04:45.288Z,5.22
2022-09-06T01:08:10.440Z,4.90
2022-09-06T01:11:27.894Z,4.70
2022-09-06T01:14:45.480Z,4.70
2022-09-06T01:17:59.202Z,4.85
2022-09-06T01:21:01.210Z,5.00
2022-09-06T01:24:13.781Z,5.00
2022-09-06T01:27:15.799Z,4.67
2022-09-06T01:30:18.969Z,5.30
2022-09-06T01:33:27.168Z,5.13
2022-09-06T01:36:32.765Z,5.32
2022-09-06T01:39:35.268Z,5.40
2022-09-06T01:42:39.145Z,5.87
2022-09-06T01:46:04.042Z,5.32
2022-09-06T01:49:26.342Z,5.38
2022-09-06T01:52:34.195Z,4.70
2022-09-06T01:55:48.204Z,4.93
2022-09-06T01:58:52.969Z,5.10
2022-09-06T02:02:07.834Z,5.68
2022-09-06T02:05:13.914Z,5.05
2022-09-06T02:08:22.488Z,5.03
2022-09-06T02:11:25.521Z,5.75
2022-09-06T02:14:30.419Z,5.20
2022-09-06T02:17:34.222Z,5.32
2022-09-06T02:20:38.328Z,4.95
2022-09-06T02:23:42.321Z,5.40
2022-09-06T02:26:45.159Z,5.45
2022-09-06T02:29:47.175Z,4.90
2022-09-06T02:33:00.108Z,5.13
2022-09-06T02:36:03.924Z,5.95
2022-09-06T02:39:06.151Z,5.78
2022-09-06T02:42:12.971Z,6.13
2022-09-06T02:45:15.300Z,4.87
2022-09-06T02:48:17.555Z,5.25
2022-09-06T02:51:20.677Z,5.47
2022-09-06T02:54:22.879Z,7.25
2022-09-06T02:57:24.929Z,5.40
2022-09-06T03:00:27.307Z,5.23
2022-09-06T03:03:29.405Z,5.95
2022-09-06T03:06:31.468Z,6.07
2022-09-06T03:09:33.489Z,5.90
2022-09-06T03:12:35.505Z,6.40
2022-09-06T03:15:37.607Z,6.57
2022-09-06T03:18:40.060Z,5.80
2022-09-06T03:21:42.048Z,6.00
2022-09-06T03:24:44.139Z,6.30
2022-09-06T03:27:46.311Z,5.80
2022-09-06T03:30:49.711Z,5.87
2022-09-06T03:33:51.800Z,6.40
2022-09-06T03:36:53.879Z,5.68
2022-09-06T03:39:56.076Z,6.75
2022-09-06T03:42:58.164Z,6.75
2022-09-06T03:46:00.226Z,6.17
2022-09-06T03:49:02.441Z,6.97
2022-09-06T03:52:04.601Z,6.72
2022-09-06T03:55:06.946Z,6.55
2022-09-06T03:58:08.961Z,7.13
2022-09-06T04:01:11.974Z,6.63
2022-09-06T04:04:14.133Z,6.72
2022-09-06T04:07:16.216Z,7.97
2022-09-06T04:10:18.287Z,7.70
2022-09-06T04:13:20.718Z,6.28
2022-09-06T04:16:22.758Z,7.23
2022-09-06T04:19:24.918Z,7.20
2022-09-06T04:22:26.896Z,6.70
2022-09-06T04:25:28.931Z,6.75
2022-09-06T04:28:30.924Z,6.88
2022-09-06T04:31:33.009Z,6.20
2022-09-06T04:34:35.077Z,6.32
2022-09-06T04:37:37.127Z,6.93
2022-09-06T04:40:39.130Z,6.38
2022-09-06T04:43:41.449Z,5.93
2022-09-06T04:46:43.460Z,5.77
2022-09-06T04:49:45.810Z,6.35
2022-09-06T04:52:47.829Z,6.70
2022-09-06T04:55:49.916Z,5.90
2022-09-06T04:58:52.977Z,5.70
2022-09-06T05:01:55.160Z,6.00
2022-09-06T05:04:57.265Z,6.53
2022-09-06T05:07:59.377Z,6.25
2022-09-06T05:11:01.509Z,6.18
2022-09-06T05:14:03.690Z,6.25
2022-09-06T05:17:05.884Z,5.40
2022-09-06T05:20:08.480Z,5.55
2022-09-06T05:23:10.574Z,6.70
2022-09-06T05:26:12.646Z,5.97
2022-09-06T05:29:14.685Z,6.53
2022-09-06T05:32:16.735Z,5.53
2022-09-06T05:35:19.016Z,5.43
2022-09-06T05:38:23.434Z,5.50
2022-09-06T05:41:27.466Z,6.13
2022-09-06T05:44:30.231Z,5.60
2022-09-06T05:47:35.533Z,6.03
2022-09-06T05:50:37.628Z,5.55
2022-09-06T05:53:41.061Z,6.88
2022-09-06T05:56:44.061Z,6.90
2022-09-06T05:59:46.671Z,7.47
2022-09-06T06:02:50.982Z,5.20
2022-09-06T06:05:54.290Z,5.82
2022-09-06T06:08:56.706Z,4.60
2022-09-06T06:11:58.797Z,4.57
2022-09-06T06:15:00.903Z,5.30
2022-09-06T06:18:03.110Z,6.00
2022-09-06T06:21:15.157Z,5.07
2022-09-06T06:24:17.267Z,5.53
2022-09-06T06:27:19.339Z,5.53
2022-09-06T06:30:21.443Z,5.18
2022-09-06T06:33:23.503Z,4.73
2022-09-06T06:36:26.962Z,5.43
2022-09-06T06:39:29.453Z,4.65
2022-09-06T06:42:31.535Z,4.72
2022-09-06T06:45:34.024Z,5.35
2022-09-06T06:48:37.390Z,5.17
2022-09-06T06:51:39.737Z,4.68
2022-09-06T06:54:41.931Z,5.03
2022-09-06T06:57:44.106Z,5.05
2022-09-06T07:00:46.818Z,5.40
2022-09-06T07:03:49.533Z,6.10
2022-09-06T07:10:33.551Z,5.68
2022-09-06T07:13:36.384Z,5.22
2022-09-06T07:16:38.610Z,6.13
2022-09-06T07:26:28.788Z,5.97
2022-09-06T07:29:31.149Z,5.88
2022-09-06T07:32:36.281Z,6.75
2022-09-06T07:35:38.372Z,5.27
2022-09-06T07:38:40.652Z,5.63
2022-09-06T07:41:44.389Z,5.80
2022-09-06T07:44:49.441Z,5.22
2022-09-06T07:47:59.999Z,6.05
2022-09-06T07:51:07.028Z,6.27
2022-09-06T07:54:30.348Z,5.43
2022-09-06T07:57:33.154Z,6.07
2022-09-06T08:00:35.528Z,5.75
2022-09-06T08:03:38.263Z,6.47
2022-09-06T08:10:05.343Z,5.55
2022-09-06T08:13:07.538Z,5.25
2022-09-06T08:16:11.782Z,5.85
2022-09-06T08:19:14.046Z,5.72
2022-09-06T08:22:17.042Z,6.00
2022-09-06T08:25:19.459Z,5.38
2022-09-06T08:28:25.548Z,5.88
2022-09-06T08:31:30.749Z,5.78
2022-09-06T08:34:33.039Z,5.47
2022-09-06T08:37:35.846Z,5.27
2022-09-06T08:40:39.283Z,5.63
2022-09-06T08:43:50.501Z,5.38
2022-09-06T08:46:55.819Z,4.85
2022-09-06T08:50:06.766Z,5.10
2022-09-06T08:53:18.282Z,5.53
2022-09-06T08:56:25.398Z,5.25
2022-09-06T08:59:28.964Z,5.20
2022-09-06T09:02:43.140Z,4.57
2022-09-06T09:05:48.499Z,4.88
2022-09-06T09:08:59.231Z,5.10
2022-09-06T09:12:01.881Z,5.20
2022-09-06T09:15:09.470Z,4.72
2022-09-06T09:18:13.327Z,4.50
2022-09-06T09:21:19.264Z,4.80
2022-09-06T09:24:21.450Z,3.87
2022-09-06T09:27:25.210Z,4.30
2022-09-06T09:30:47.814Z,5.18
2022-09-06T09:33:50.933Z,4.97
2022-09-06T09:40:50.893Z,4.33
2022-09-06T09:43:57.766Z,4.07
2022-09-06T09:47:10.184Z,4.45
2022-09-06T09:50:41.719Z,4.68
2022-09-06T09:53:54.357Z,5.35
2022-09-06T09:56:57.016Z,4.13
2022-09-06T10:00:02.443Z,4.43
2022-09-06T10:03:17.288Z,4.70
2022-09-06T10:09:58.421Z,4.20
2022-09-06T10:13:08.232Z,4.20
2022-09-06T10:16:10.628Z,3.75
2022-09-06T10:19:42.334Z,4.35
2022-09-06T10:22:57.218Z,4.28
2022-09-06T10:26:06.633Z,3.63
2022-09-06T10:29:12.661Z,3.70
2022-09-06T10:32:24.478Z,4.22
2022-09-06T10:35:31.502Z,3.58
2022-09-06T10:38:49.946Z,3.60
2022-09-06T10:41:58.334Z,4.68
2022-09-06T10:45:09.675Z,3.03
2022-09-06T10:48:27.645Z,3.53
2022-09-06T10:51:38.843Z,3.63
2022-09-06T10:54:42.221Z,4.78
2022-09-06T11:01:19.715Z,2.97
2022-09-06T11:04:25.461Z,3.00
2022-09-06T11:07:31.552Z,3.03
2022-09-06T11:10:36.004Z,2.47
2022-09-06T11:13:38.343Z,3.38
2022-09-06T11:16:46.184Z,5.43
2022-09-06T11:20:03.723Z,3.40
2022-09-06T11:23:05.711Z,3.20
2022-09-06T11:26:19.894Z,3.20
2022-09-06T11:29:23.583Z,3.80
2022-09-06T11:32:28.817Z,3.50
2022-09-06T11:35:32.870Z,3.60
2022-09-06T11:38:36.011Z,3.00
2022-09-06T11:41:40.404Z,3.30
2022-09-06T11:44:51.665Z,3.22
2022-09-06T11:47:53.770Z,3.50
2022-09-06T11:50:58.931Z,3.28
2022-09-06T11:54:24.404Z,3.60
2022-09-06T11:57:27.620Z,3.10
2022-09-06T12:00:29.806Z,3.10
2022-09-06T12:04:06.720Z,2.93
2022-09-06T12:07:13.274Z,3.28
2022-09-06T12:10:30.683Z,2.70
2022-09-06T12:13:33.120Z,3.08
2022-09-06T12:16:53.868Z,3.30
2022-09-06T12:19:59.672Z,3.30
2022-09-06T12:23:02.151Z,2.85
2022-09-06T12:26:08.034Z,3.45
2022-09-06T12:29:10.699Z,3.40
2022-09-06T12:32:17.006Z,2.95
2022-09-06T12:39:02.117Z,4.00
2022-09-06T12:42:05.876Z,2.95
2022-09-06T12:45:08.367Z,3.50
2022-09-06T12:48:11.833Z,3.75
2022-09-06T12:51:20.523Z,3.00
2022-09-06T12:54:24.369Z,4.00
2022-09-06T12:57:26.646Z,3.10
2022-09-06T13:00:34.097Z,3.70
2022-09-06T13:03:39.124Z,3.42
2022-09-06T13:06:45.834Z,3.50
2022-09-06T13:09:49.271Z,3.22
2022-09-06T13:12:53.125Z,2.97
2022-09-06T13:15:56.052Z,2.80
2022-09-06T13:19:16.881Z,3.15
2022-09-06T13:22:39.156Z,3.40
2022-09-06T13:25:48.555Z,3.38
2022-09-06T13:28:50.637Z,3.13
2022-09-06T13:31:55.841Z,3.20
2022-09-06T13:34:59.945Z,3.00
2022-09-06T13:38:21.105Z,3.00
2022-09-06T13:41:26.271Z,2.72
2022-09-06T13:44:30.253Z,3.05
2022-09-06T13:47:32.931Z,3.05
2022-09-06T13:50:35.477Z,3.55
2022-09-06T13:53:37.663Z,2.80
2022-09-06T13:56:40.858Z,3.10
2022-09-06T13:59:43.091Z,3.15
2022-09-06T14:02:46.564Z,2.40
2022-09-06T14:05:49.000Z,2.88
2022-09-06T14:09:07.961Z,2.77
2022-09-06T14:12:11.205Z,2.70
2022-09-06T14:15:13.458Z,2.50
2022-09-06T14:18:15.535Z,3.00
2022-09-06T14:21:17.759Z,2.55
2022-09-06T14:24:20.235Z,2.70
2022-09-06T14:27:22.322Z,2.78
2022-09-06T14:30:24.648Z,2.83
2022-09-06T14:33:26.612Z,2.95
2022-09-06T14:36:29.735Z,2.92
2022-09-06T14:39:31.794Z,2.70
2022-09-06T14:42:34.282Z,2.80
2022-09-06T14:45:36.884Z,2.75
2022-09-06T14:48:42.128Z,2.97
2022-09-06T14:51:45.953Z,2.70
2022-09-06T14:54:48.134Z,2.80
2022-09-06T14:57:50.597Z,2.53
2022-09-06T15:00:52.612Z,2.63
2022-09-06T15:03:56.080Z,2.63
2022-09-06T15:06:58.457Z,2.80
2022-09-06T15:10:00.622Z,2.50
2022-09-06T15:13:02.719Z,2.70
2022-09-06T15:16:05.351Z,3.03
2022-09-06T15:19:10.291Z,2.60
2022-09-06T15:22:12.357Z,2.45
2022-09-06T15:25:14.402Z,2.50
2022-09-06T15:28:17.891Z,2.60
2022-09-06T15:31:20.265Z,2.35
2022-09-06T15:34:23.899Z,2.40
2022-09-06T15:37:25.952Z,2.67
2022-09-06T15:40:28.090Z,2.30
2022-09-06T15:43:31.760Z,2.75
2022-09-06T15:46:38.444Z,2.42
2022-09-06T15:49:41.204Z,2.97
2022-09-06T15:52:43.317Z,3.65
2022-09-06T15:55:57.491Z,3.33
2022-09-06T15:58:59.591Z,3.28
2022-09-06T16:02:01.841Z,2.95
2022-09-06T16:05:04.311Z,3.25
2022-09-06T16:08:06.401Z,4.22
2022-09-06T16:11:12.659Z,3.53
2022-09-06T16:14:15.797Z,3.30
2022-09-06T16:17:17.871Z,4.38
2022-09-06T16:20:19.934Z,3.45
2022-09-06T16:23:22.201Z,3.95
2022-09-06T16:26:25.232Z,3.60
2022-09-06T16:29:27.264Z,3.40
2022-09-06T16:32:29.254Z,4.13
2022-09-06T16:35:31.332Z,3.60
2022-09-06T16:38:33.629Z,3.55
2022-09-06T16:41:42.909Z,3.13
2022-09-06T16:44:44.987Z,3.55
2022-09-06T16:47:47.982Z,3.70
2022-09-06T16:50:50.023Z,3.53
2022-09-06T16:53:52.312Z,3.47
2022-09-06T16:56:54.359Z,3.40
2022-09-06T16:59:56.503Z,3.78
2022-09-06T17:02:59.849Z,3.90
2022-09-06T17:06:02.198Z,3.42
2022-09-06T17:09:04.791Z,3.50
2022-09-06T17:12:06.977Z,3.60
2022-09-06T17:15:09.282Z,3.78
2022-09-06T17:18:11.939Z,3.72
2022-09-06T17:21:14.001Z,3.38
2022-09-06T17:24:16.606Z,3.80
2022-09-06T17:27:18.882Z,3.07
2022-09-06T17:30:20.920Z,3.40
2022-09-06T17:33:23.833Z,3.58
2022-09-06T17:36:27.851Z,4.10
2022-09-06T17:39:29.952Z,3.80
2022-09-06T17:42:32.120Z,3.37
2022-09-06T17:45:42.613Z,4.10
2022-09-06T17:48:44.772Z,3.60
2022-09-06T17:51:47.274Z,4.20
2022-09-06T17:54:49.350Z,3.90
2022-09-06T17:57:51.399Z,3.47
2022-09-06T18:00:53.718Z,3.70
2022-09-06T18:03:55.956Z,3.95
2022-09-06T18:06:58.450Z,3.72
2022-09-06T18:10:00.485Z,4.00
2022-09-06T18:13:03.189Z,3.67
2022-09-06T18:16:05.379Z,3.72
2022-09-06T18:19:08.318Z,3.58
2022-09-06T18:22:10.375Z,3.92
2022-09-06T18:25:12.546Z,4.10
2022-09-06T18:28:14.833Z,3.80
2022-09-06T18:31:18.611Z,4.25
2022-09-06T18:34:21.063Z,4.13
2022-09-06T18:37:23.236Z,4.40
2022-09-06T18:40:25.299Z,4.88
2022-09-06T18:43:29.538Z,4.53
2022-09-06T18:46:33.246Z,4.75
2022-09-06T18:49:35.550Z,4.80
2022-09-06T18:52:38.488Z,4.82
2022-09-06T18:55:43.899Z,4.43
2022-09-06T18:58:45.964Z,4.50
2022-09-06T19:01:48.193Z,4.85
2022-09-06T19:04:54.113Z,4.63
2022-09-06T19:07:56.151Z,4.60
2022-09-06T19:10:59.023Z,4.95
2022-09-06T19:14:01.455Z,4.83
2022-09-06T19:17:04.196Z,4.80
2022-09-06T19:20:06.642Z,4.90
2022-09-06T19:23:08.789Z,5.75
2022-09-06T19:26:17.719Z,5.80
2022-09-06T19:29:19.801Z,6.30
2022-09-06T19:32:22.376Z,6.53
2022-09-06T19:35:24.792Z,6.68
2022-09-06T19:38:27.940Z,7.00
2022-09-06T19:41:35.844Z,7.95
2022-09-06T19:44:37.856Z,7.37
2022-09-06T19:47:40.104Z,7.05
2022-09-06T19:50:42.163Z,7.07
2022-09-06T19:53:47.115Z,6.32
2022-09-06T19:56:49.270Z,6.65
2022-09-06T19:59:51.328Z,6.77
2022-09-06T20:02:56.309Z,6.20
2022-09-06T20:05:59.352Z,7.10
2022-09-06T20:09:02.080Z,7.38
2022-09-06T20:12:04.277Z,7.25
2022-09-06T20:15:07.238Z,6.40
2022-09-06T20:18:09.578Z,6.80
2022-09-06T20:21:13.950Z,6.80
2022-09-06T20:24:16.052Z,7.40
2022-09-06T20:27:18.085Z,6.72
2022-09-06T20:30:20.496Z,6.77
2022-09-06T20:33:22.483Z,6.57
2022-09-06T20:36:25.299Z,7.60
2022-09-06T20:39:27.428Z,7.28
2022-09-06T20:42:29.480Z,6.40
2022-09-06T20:45:32.122Z,6.43
2022-09-06T20:48:34.798Z,7.03
2022-09-06T20:51:38.566Z,6.28
2022-09-06T20:54:41.187Z,6.63
2022-09-06T20:57:43.303Z,7.50
2022-09-06T21:00:45.373Z,6.37
2022-09-06T21:03:47.415Z,7.10
2022-09-06T21:06:51.039Z,6.93
2022-09-06T21:09:53.202Z,7.35
2022-09-06T21:12:55.211Z,6.75
2022-09-06T21:15:58.099Z,6.87
2022-09-06T21:19:04.328Z,6.95
2022-09-06T21:22:06.401Z,7.47
2022-09-06T21:25:08.660Z,7.70
2022-09-06T21:28:10.760Z,7.63
2022-09-06T21:31:15.001Z,7.73
2022-09-06T21:34:17.520Z,7.57
2022-09-06T21:37:19.616Z,6.22
2022-09-06T21:40:21.617Z,6.40
2022-09-06T21:43:23.639Z,6.90
2022-09-06T21:46:31.745Z,5.60
2022-09-06T21:49:34.854Z,6.60
2022-09-06T21:52:36.891Z,5.95
2022-09-06T21:55:38.931Z,6.20
2022-09-06T21:58:41.157Z,6.25
2022-09-06T22:01:45.241Z,6.47
2022-09-06T22:04:47.402Z,5.90
2022-09-06T22:07:49.449Z,6.45
2022-09-06T22:10:51.984Z,6.70
2022-09-06T22:13:54.393Z,6.65
2022-09-06T22:16:56.526Z,6.37
2022-09-06T22:19:58.572Z,5.82
2022-09-06T22:23:07.251Z,6.50
2022-09-06T22:26:11.416Z,6.47
2022-09-06T22:29:15.106Z,6.80
2022-09-06T22:32:17.503Z,6.50
2022-09-06T22:35:19.865Z,7.15
2022-09-06T22:38:21.957Z,6.80
2022-09-06T22:41:25.229Z,6.68
2022-09-06T22:44:27.706Z,6.97
2022-09-06T22:47:29.767Z,6.83
2022-09-06T22:50:31.800Z,6.68
2022-09-06T22:53:34.237Z,6.93
2022-09-06T22:56:36.449Z,7.78
2022-09-06T22:59:38.469Z,7.15
2022-09-06T23:02:40.593Z,7.50
2022-09-06T23:05:42.691Z,6.82
2022-09-06T23:08:44.906Z,7.47
2022-09-06T23:11:46.945Z,7.15
2022-09-06T23:14:49.027Z,7.20
2022-09-06T23:17:51.455Z,7.00
2022-09-06T23:20:53.481Z,7.15
2022-09-06T23:23:56.242Z,7.85
2022-09-06T23:26:58.296Z,7.40
2022-09-06T23:30:01.064Z,8.77
2022-09-06T23:33:03.109Z,7.50
2022-09-06T23:36:05.901Z,6.95
2022-09-06T23:39:08.632Z,7.75
2022-09-06T23:42:10.672Z,8.00
2022-09-06T23:45:12.708Z,8.35
2022-09-06T23:48:14.816Z,9.00
2022-09-06T23:51:16.898Z,8.32
2022-09-06T23:54:18.966Z,8.25
2022-09-06T23:57:21.193Z,8.15
